sensor_id;sensor_type;location;lat;lon;timestamp;pressure;altitude;pressure_sealevel;temperature;humidity
9462;BME280;4769;42.660;23.262;2023-03-03T00:00:21;94008.66;;;5.85;100.00
9462;BME280;4769;42.660;23.262;2023-03-03T00:02:47;94013.09;;;5.78;100.00
9462;BME280;4769;42.660;23.262;2023-03-03T00:05:12;94008.66;;;5.85;100.00
9462;BME280;4769;42.660;23.262;2023-03-03T00:07:38;94011.00;;;5.93;100.00
9462;BME280;4769;42.660;23.262;2023-03-03T00:10:05;94014.53;;;6.05;99.93
9462;BME280;4769;42.660;23.262;2023-03-03T00:12:33;94011.25;;;6.09;99.71
9462;BME280;4769;42.660;23.262;2023-03-03T00:15:00;94016.94;;;6.06;99.45
9462;BME280;4769;42.660;23.262;2023-03-03T00:17:27;94015.97;;;6.01;99.60
9462;BME280;4769;42.660;23.262;2023-03-03T00:19:53;94014.31;;;6.06;99.50
9462;BME280;4769;42.660;23.262;2023-03-03T00:22:28;94007.03;;;6.08;99.57
9462;BME280;4769;42.660;23.262;2023-03-03T00:24:54;94005.81;;;5.86;100.00
9462;BME280;4769;42.660;23.262;2023-03-03T00:27:26;94005.34;;;5.96;100.00
9462;BME280;4769;42.660;23.262;2023-03-03T00:29:58;94008.91;;;6.01;100.00
9462;BME280;4769;42.660;23.262;2023-03-03T00:32:26;94003.53;;;5.96;100.00
9462;BME280;4769;42.660;23.262;2023-03-03T00:34:54;93987.88;;;5.90;100.00
9462;BME280;4769;42.660;23.262;2023-03-03T00:37:27;93990.22;;;5.98;100.00
9462;BME280;4769;42.660;23.262;2023-03-03T00:39:53;93992.41;;;6.01;100.00
9462;BME280;4769;42.660;23.262;2023-03-03T00:42:23;93988.72;;;5.84;100.00
9462;BME280;4769;42.660;23.262;2023-03-03T00:44:58;93992.88;;;5.91;100.00
9462;BME280;4769;42.660;23.262;2023-03-03T00:47:29;93983.59;;;5.95;100.00
9462;BME280;4769;42.660;23.262;2023-03-03T00:52:46;93986.44;;;5.94;100.00
9462;BME280;4769;42.660;23.262;2023-03-03T00:55:18;93968.41;;;5.86;100.00
9462;BME280;4769;42.660;23.262;2023-03-03T00:57:43;93975.97;;;5.94;100.00
9462;BME280;4769;42.660;23.262;2023-03-03T01:00:13;93966.91;;;5.96;100.00
9462;BME280;4769;42.660;23.262;2023-03-03T01:02:39;93961.56;;;6.03;100.00
9462;BME280;4769;42.660;23.262;2023-03-03T01:05:05;93963.47;;;5.96;100.00
9462;BME280;4769;42.660;23.262;2023-03-03T01:07:32;93960.84;;;5.96;100.00
9462;BME280;4769;42.660;23.262;2023-03-03T01:09:58;93949.97;;;5.99;100.00
9462;BME280;4769;42.660;23.262;2023-03-03T01:12:24;93958.88;;;5.91;100.00
9462;BME280;4769;42.660;23.262;2023-03-03T01:14:49;93960.34;;;5.87;100.00
9462;BME280;4769;42.660;23.262;2023-03-03T01:17:18;93960.09;;;5.89;100.00
9462;BME280;4769;42.660;23.262;2023-03-03T01:19:44;93944.69;;;5.81;100.00
9462;BME280;4769;42.660;23.262;2023-03-03T01:22:10;93950.50;;;5.83;100.00
9462;BME280;4769;42.660;23.262;2023-03-03T01:24:35;93963.84;;;5.99;100.00
9462;BME280;4769;42.660;23.262;2023-03-03T01:27:01;93957.56;;;6.00;100.00
9462;BME280;4769;42.660;23.262;2023-03-03T01:29:27;93957.88;;;5.92;100.00
9462;BME280;4769;42.660;23.262;2023-03-03T01:31:53;93947.19;;;5.94;100.00
9462;BME280;4769;42.660;23.262;2023-03-03T01:34:21;93952.63;;;5.92;100.00
9462;BME280;4769;42.660;23.262;2023-03-03T01:36:47;93953.44;;;5.93;100.00
9462;BME280;4769;42.660;23.262;2023-03-03T01:39:12;93956.63;;;5.95;100.00
9462;BME280;4769;42.660;23.262;2023-03-03T01:41:38;93952.63;;;5.92;100.00
9462;BME280;4769;42.660;23.262;2023-03-03T01:44:04;93951.19;;;5.96;100.00
9462;BME280;4769;42.660;23.262;2023-03-03T01:46:41;93942.75;;;5.94;100.00
9462;BME280;4769;42.660;23.262;2023-03-03T01:49:12;93941.97;;;5.94;100.00
9462;BME280;4769;42.660;23.262;2023-03-03T01:51:46;93936.13;;;5.92;100.00
9462;BME280;4769;42.660;23.262;2023-03-03T01:54:17;93937.25;;;6.02;100.00
9462;BME280;4769;42.660;23.262;2023-03-03T01:56:45;93944.44;;;6.07;100.00
9462;BME280;4769;42.660;23.262;2023-03-03T01:59:14;93943.59;;;6.13;100.00
9462;BME280;4769;42.660;23.262;2023-03-03T02:01:41;93945.53;;;6.17;100.00
9462;BME280;4769;42.660;23.262;2023-03-03T02:04:07;93943.72;;;6.00;100.00
9462;BME280;4769;42.660;23.262;2023-03-03T02:06:37;93938.41;;;6.06;100.00
9462;BME280;4769;42.660;23.262;2023-03-03T02:09:11;93944.44;;;6.07;100.00
9462;BME280;4769;42.660;23.262;2023-03-03T02:11:41;93937.81;;;6.04;100.00
9462;BME280;4769;42.660;23.262;2023-03-03T02:14:09;93941.03;;;6.06;100.00
9462;BME280;4769;42.660;23.262;2023-03-03T02:16:35;93934.56;;;6.09;100.00
9462;BME280;4769;42.660;23.262;2023-03-03T02:19:01;93940.63;;;6.03;100.00
9462;BME280;4769;42.660;23.262;2023-03-03T02:21:29;93938.47;;;6.00;100.00
9462;BME280;4769;42.660;23.262;2023-03-03T02:24:01;93934.47;;;5.97;100.00
9462;BME280;4769;42.660;23.262;2023-03-03T02:26:33;93939.03;;;6.02;100.00
9462;BME280;4769;42.660;23.262;2023-03-03T02:29:00;93945.66;;;6.04;100.00
9462;BME280;4769;42.660;23.262;2023-03-03T02:31:28;93937.59;;;6.06;100.00
9462;BME280;4769;42.660;23.262;2023-03-03T02:33:54;93937.88;;;5.98;100.00
9462;BME280;4769;42.660;23.262;2023-03-03T02:36:22;93940.94;;;5.95;100.00
9462;BME280;4769;42.660;23.262;2023-03-03T02:38:52;93936.06;;;5.98;100.00
9462;BME280;4769;42.660;23.262;2023-03-03T02:41:27;93929.31;;;5.91;100.00
9462;BME280;4769;42.660;23.262;2023-03-03T02:43:59;93943.56;;;5.95;100.00
9462;BME280;4769;42.660;23.262;2023-03-03T02:46:25;93938.44;;;5.82;100.00
9462;BME280;4769;42.660;23.262;2023-03-03T02:48:51;93933.22;;;5.82;100.00
9462;BME280;4769;42.660;23.262;2023-03-03T02:51:16;93941.28;;;5.74;100.00
9462;BME280;4769;42.660;23.262;2023-03-03T02:53:42;93939.91;;;5.71;100.00
9462;BME280;4769;42.660;23.262;2023-03-03T02:56:08;93928.44;;;5.72;100.00
9462;BME280;4769;42.660;23.262;2023-03-03T02:58:34;93929.91;;;5.68;100.00
9462;BME280;4769;42.660;23.262;2023-03-03T03:01:02;93930.25;;;5.72;100.00
9462;BME280;4769;42.660;23.262;2023-03-03T03:03:28;93933.41;;;5.80;100.00
9462;BME280;4769;42.660;23.262;2023-03-03T03:05:53;93911.13;;;5.71;100.00
9462;BME280;4769;42.660;23.262;2023-03-03T03:08:19;93929.81;;;5.75;100.00
9462;BME280;4769;42.660;23.262;2023-03-03T03:10:45;93922.41;;;5.72;100.00
9462;BME280;4769;42.660;23.262;2023-03-03T03:13:10;93924.00;;;5.73;100.00
9462;BME280;4769;42.660;23.262;2023-03-03T03:15:36;93924.81;;;5.73;100.00
9462;BME280;4769;42.660;23.262;2023-03-03T03:18:05;93923.03;;;5.67;100.00
9462;BME280;4769;42.660;23.262;2023-03-03T03:20:31;93919.91;;;5.59;100.00
9462;BME280;4769;42.660;23.262;2023-03-03T03:22:56;93915.53;;;5.53;100.00
9462;BME280;4769;42.660;23.262;2023-03-03T03:25:22;93921.34;;;5.55;100.00
9462;BME280;4769;42.660;23.262;2023-03-03T03:27:48;93920.88;;;5.40;100.00
9462;BME280;4769;42.660;23.262;2023-03-03T03:30:13;93919.81;;;5.47;100.00
9462;BME280;4769;42.660;23.262;2023-03-03T03:32:39;93918.00;;;5.48;100.00
9462;BME280;4769;42.660;23.262;2023-03-03T03:35:08;93923.06;;;5.43;100.00
9462;BME280;4769;42.660;23.262;2023-03-03T03:37:34;93916.94;;;5.55;100.00
9462;BME280;4769;42.660;23.262;2023-03-03T03:39:59;93911.91;;;5.54;100.00
9462;BME280;4769;42.660;23.262;2023-03-03T03:42:25;93911.31;;;5.52;100.00
9462;BME280;4769;42.660;23.262;2023-03-03T03:44:51;93908.69;;;5.52;100.00
9462;BME280;4769;42.660;23.262;2023-03-03T03:47:16;93907.31;;;5.49;100.00
9462;BME280;4769;42.660;23.262;2023-03-03T03:49:42;93907.31;;;5.49;100.00
9462;BME280;4769;42.660;23.262;2023-03-03T03:52:10;93904.00;;;5.36;100.00
9462;BME280;4769;42.660;23.262;2023-03-03T03:54:36;93906.38;;;5.44;100.00
9462;BME280;4769;42.660;23.262;2023-03-03T03:57:02;93910.41;;;5.40;100.00
9462;BME280;4769;42.660;23.262;2023-03-03T03:59:27;93904.59;;;5.38;100.00
9462;BME280;4769;42.660;23.262;2023-03-03T04:01:53;93905.59;;;5.37;100.00
9462;BME280;4769;42.660;23.262;2023-03-03T04:04:19;93894.38;;;5.36;100.00
9462;BME280;4769;42.660;23.262;2023-03-03T04:06:44;93911.50;;;5.32;100.00
9462;BME280;4769;42.660;23.262;2023-03-03T04:09:13;93887.00;;;5.27;100.00
9462;BME280;4769;42.660;23.262;2023-03-03T04:11:38;93901.50;;;5.23;100.00
9462;BME280;4769;42.660;23.262;2023-03-03T04:14:04;93892.06;;;5.22;100.00
9462;BME280;4769;42.660;23.262;2023-03-03T04:16:30;93897.88;;;5.24;100.00
9462;BME280;4769;42.660;23.262;2023-03-03T04:18:56;93904.91;;;5.23;100.00
9462;BME280;4769;42.660;23.262;2023-03-03T04:21:21;93899.03;;;5.28;100.00
9462;BME280;4769;42.660;23.262;2023-03-03T04:23:47;93901.44;;;5.29;100.00
9462;BME280;4769;42.660;23.262;2023-03-03T04:26:15;93896.66;;;5.26;100.00
9462;BME280;4769;42.660;23.262;2023-03-03T04:28:41;93900.22;;;5.32;100.00
9462;BME280;4769;42.660;23.262;2023-03-03T04:31:07;93896.06;;;5.24;100.00
9462;BME280;4769;42.660;23.262;2023-03-03T04:33:32;93888.44;;;5.23;100.00
9462;BME280;4769;42.660;23.262;2023-03-03T04:35:58;93892.44;;;5.25;100.00
9462;BME280;4769;42.660;23.262;2023-03-03T04:38:24;93894.41;;;5.30;100.00
9462;BME280;4769;42.660;23.262;2023-03-03T04:40:50;93896.59;;;5.33;100.00
9462;BME280;4769;42.660;23.262;2023-03-03T04:43:18;93885.97;;;5.28;100.00
9462;BME280;4769;42.660;23.262;2023-03-03T04:45:44;93901.66;;;5.28;100.00
9462;BME280;4769;42.660;23.262;2023-03-03T04:48:10;93894.13;;;5.38;100.00
9462;BME280;4769;42.660;23.262;2023-03-03T04:50:36;93900.53;;;5.42;100.00
9462;BME280;4769;42.660;23.262;2023-03-03T04:53:01;93896.16;;;5.36;100.00
9462;BME280;4769;42.660;23.262;2023-03-03T04:55:27;93888.59;;;5.28;100.00
9462;BME280;4769;42.660;23.262;2023-03-03T04:57:55;93900.06;;;5.27;100.00
9462;BME280;4769;42.660;23.262;2023-03-03T05:00:24;93897.59;;;5.32;100.00
9462;BME280;4769;42.660;23.262;2023-03-03T05:02:50;93903.44;;;5.34;100.00
9462;BME280;4769;42.660;23.262;2023-03-03T05:05:15;93902.66;;;5.27;100.00
9462;BME280;4769;42.660;23.262;2023-03-03T05:07:41;93896.06;;;5.24;100.00
9462;BME280;4769;42.660;23.262;2023-03-03T05:10:08;93903.81;;;5.37;100.00
9462;BME280;4769;42.660;23.262;2023-03-03T05:12:34;93906.06;;;5.34;100.00
9462;BME280;4769;42.660;23.262;2023-03-03T05:15:00;93910.41;;;5.40;100.00
9462;BME280;4769;42.660;23.262;2023-03-03T05:17:29;93907.38;;;5.43;100.00
9462;BME280;4769;42.660;23.262;2023-03-03T05:19:55;93907.31;;;5.49;100.00
9462;BME280;4769;42.660;23.262;2023-03-03T05:22:21;93903.91;;;5.49;100.00
9462;BME280;4769;42.660;23.262;2023-03-03T05:24:46;93909.50;;;5.52;100.00
9462;BME280;4769;42.660;23.262;2023-03-03T05:27:12;93904.47;;;5.51;100.00
9462;BME280;4769;42.660;23.262;2023-03-03T05:29:38;93910.63;;;5.63;100.00
9462;BME280;4769;42.660;23.262;2023-03-03T05:32:04;93916.88;;;5.62;100.00
9462;BME280;4769;42.660;23.262;2023-03-03T05:34:32;93905.97;;;5.65;100.00
9462;BME280;4769;42.660;23.262;2023-03-03T05:36:58;93907.56;;;5.66;100.00
9462;BME280;4769;42.660;23.262;2023-03-03T05:39:24;93913.69;;;5.78;100.00
9462;BME280;4769;42.660;23.262;2023-03-03T05:41:50;93901.50;;;5.72;100.00
9462;BME280;4769;42.660;23.262;2023-03-03T05:44:18;93913.69;;;5.78;100.00
9462;BME280;4769;42.660;23.262;2023-03-03T05:46:44;93909.34;;;5.72;100.00
9462;BME280;4769;42.660;23.262;2023-03-03T05:49:10;93910.88;;;5.79;100.00
9462;BME280;4769;42.660;23.262;2023-03-03T05:51:38;93921.53;;;5.78;100.00
9462;BME280;4769;42.660;23.262;2023-03-03T05:54:04;93923.91;;;5.86;100.00
9462;BME280;4769;42.660;23.262;2023-03-03T05:56:30;93920.06;;;5.88;100.00
9462;BME280;4769;42.660;23.262;2023-03-03T05:58:55;93925.25;;;5.95;100.00
9462;BME280;4769;42.660;23.262;2023-03-03T06:01:21;93916.28;;;5.84;100.00
9462;BME280;4769;42.660;23.262;2023-03-03T06:03:47;93918.97;;;5.71;100.00
9462;BME280;4769;42.660;23.262;2023-03-03T06:06:13;93921.34;;;5.79;100.00
9462;BME280;4769;42.660;23.262;2023-03-03T06:08:42;93920.81;;;5.71;100.00
9462;BME280;4769;42.660;23.262;2023-03-03T06:11:08;93915.59;;;5.71;100.00
9462;BME280;4769;42.660;23.262;2023-03-03T06:13:34;93916.91;;;5.80;100.00
9462;BME280;4769;42.660;23.262;2023-03-03T06:16:00;93926.47;;;5.92;100.00
9462;BME280;4769;42.660;23.262;2023-03-03T06:18:25;93917.31;;;6.01;100.00
9462;BME280;4769;42.660;23.262;2023-03-03T06:20:51;93932.72;;;6.09;100.00
9462;BME280;4769;42.660;23.262;2023-03-03T06:23:17;93921.31;;;6.04;100.00
9462;BME280;4769;42.660;23.262;2023-03-03T06:25:46;93926.41;;;5.99;100.00
9462;BME280;4769;42.660;23.262;2023-03-03T06:28:11;93932.16;;;6.07;100.00
9462;BME280;4769;42.660;23.262;2023-03-03T06:30:37;93924.16;;;6.02;100.00
9462;BME280;4769;42.660;23.262;2023-03-03T06:33:03;93931.56;;;6.05;100.00
9462;BME280;4769;42.660;23.262;2023-03-03T06:35:29;93937.50;;;5.94;100.00
9462;BME280;4769;42.660;23.262;2023-03-03T06:37:54;93937.94;;;5.91;100.00
9462;BME280;4769;42.660;23.262;2023-03-03T06:40:21;93934.13;;;5.94;100.00
9462;BME280;4769;42.660;23.262;2023-03-03T06:42:49;93930.75;;;5.87;100.00
9462;BME280;4769;42.660;23.262;2023-03-03T06:45:15;93943.03;;;6.04;100.00
9462;BME280;4769;42.660;23.262;2023-03-03T06:47:40;93938.91;;;6.15;100.00
9462;BME280;4769;42.660;23.262;2023-03-03T06:50:08;93939.22;;;6.25;100.00
9462;BME280;4769;42.660;23.262;2023-03-03T06:52:34;93946.03;;;6.26;100.00
9462;BME280;4769;42.660;23.262;2023-03-03T06:55:01;93940.38;;;6.29;100.00
9462;BME280;4769;42.660;23.262;2023-03-03T06:57:34;93943.06;;;6.40;100.00
9462;BME280;4769;42.660;23.262;2023-03-03T07:00:15;93940.25;;;6.42;100.00
9462;BME280;4769;42.660;23.262;2023-03-03T07:02:42;93938.56;;;6.47;100.00
9462;BME280;4769;42.660;23.262;2023-03-03T07:05:13;93940.00;;;6.61;100.00
9462;BME280;4769;42.660;23.262;2023-03-03T07:07:39;93946.09;;;6.73;100.00
9462;BME280;4769;42.660;23.262;2023-03-03T07:10:10;93952.50;;;6.59;100.00
9462;BME280;4769;42.660;23.262;2023-03-03T07:12:37;93941.81;;;6.25;100.00
9462;BME280;4769;42.660;23.262;2023-03-03T07:15:15;93954.56;;;6.39;100.00
9462;BME280;4769;42.660;23.262;2023-03-03T07:17:43;93938.41;;;6.42;100.00
9462;BME280;4769;42.660;23.262;2023-03-03T07:20:16;93935.78;;;6.60;100.00
9462;BME280;4769;42.660;23.262;2023-03-03T07:22:42;93943.19;;;6.63;100.00
9462;BME280;4769;42.660;23.262;2023-03-03T07:25:19;93947.41;;;6.64;100.00
9462;BME280;4769;42.660;23.262;2023-03-03T07:27:45;93940.72;;;6.68;100.00
9462;BME280;4769;42.660;23.262;2023-03-03T07:30:23;93944.44;;;6.61;100.00
9462;BME280;4769;42.660;23.262;2023-03-03T07:32:51;93942.84;;;6.60;100.00
9462;BME280;4769;42.660;23.262;2023-03-03T07:35:28;93942.47;;;6.56;100.00
9462;BME280;4769;42.660;23.262;2023-03-03T07:37:55;93943.47;;;6.73;100.00
9462;BME280;4769;42.660;23.262;2023-03-03T07:40:30;93946.44;;;6.77;100.00
9462;BME280;4769;42.660;23.262;2023-03-03T07:42:59;93940.16;;;6.66;100.00
9462;BME280;4769;42.660;23.262;2023-03-03T07:45:30;93939.97;;;6.79;100.00
9462;BME280;4769;42.660;23.262;2023-03-03T07:48:00;93943.66;;;6.90;100.00
9462;BME280;4769;42.660;23.262;2023-03-03T07:50:33;93932.53;;;6.94;100.00
9462;BME280;4769;42.660;23.262;2023-03-03T07:52:59;93934.38;;;7.05;100.00
9462;BME280;4769;42.660;23.262;2023-03-03T07:55:31;93931.88;;;7.10;100.00
9462;BME280;4769;42.660;23.262;2023-03-03T07:58:14;93943.44;;;7.21;100.00
9462;BME280;4769;42.660;23.262;2023-03-03T08:03:40;93943.22;;;7.22;100.00
9462;BME280;4769;42.660;23.262;2023-03-03T08:06:31;93932.94;;;7.21;100.00
9462;BME280;4769;42.660;23.262;2023-03-03T08:09:01;93931.41;;;7.43;99.95
9462;BME280;4769;42.660;23.262;2023-03-03T08:11:32;93932.53;;;7.47;99.61
9462;BME280;4769;42.660;23.262;2023-03-03T08:13:58;93927.16;;;7.42;100.00
9462;BME280;4769;42.660;23.262;2023-03-03T08:16:29;93940.69;;;7.57;99.30
9462;BME280;4769;42.660;23.262;2023-03-03T08:19:04;93933.16;;;7.60;98.39
9462;BME280;4769;42.660;23.262;2023-03-03T08:21:30;93923.78;;;7.53;97.63
9462;BME280;4769;42.660;23.262;2023-03-03T08:23:58;93924.09;;;7.45;98.50
9462;BME280;4769;42.660;23.262;2023-03-03T08:26:24;93931.97;;;7.45;98.21
9462;BME280;4769;42.660;23.262;2023-03-03T08:28:51;93922.53;;;7.44;98.25
9462;BME280;4769;42.660;23.262;2023-03-03T08:31:17;93924.56;;;7.53;98.74
9462;BME280;4769;42.660;23.262;2023-03-03T08:33:43;93910.56;;;7.59;97.36
9462;BME280;4769;42.660;23.262;2023-03-03T08:36:12;93914.91;;;7.77;96.33
9462;BME280;4769;42.660;23.262;2023-03-03T08:38:38;93919.00;;;7.96;96.87
9462;BME280;4769;42.660;23.262;2023-03-03T08:41:04;93918.69;;;8.04;98.28
9462;BME280;4769;42.660;23.262;2023-03-03T08:43:30;93924.59;;;8.11;96.68
9462;BME280;4769;42.660;23.262;2023-03-03T08:45:58;93915.34;;;8.20;95.28
9462;BME280;4769;42.660;23.262;2023-03-03T08:48:24;93913.78;;;8.30;95.41
9462;BME280;4769;42.660;23.262;2023-03-03T08:50:51;93921.16;;;8.33;95.19
9462;BME280;4769;42.660;23.262;2023-03-03T08:53:20;93926.69;;;8.32;95.27
9462;BME280;4769;42.660;23.262;2023-03-03T08:55:46;93913.88;;;8.24;94.05
9462;BME280;4769;42.660;23.262;2023-03-03T08:58:12;93921.97;;;8.11;94.57
9462;BME280;4769;42.660;23.262;2023-03-03T09:00:38;93918.66;;;8.15;94.59
9462;BME280;4769;42.660;23.262;2023-03-03T09:03:04;93918.66;;;8.15;95.49
9462;BME280;4769;42.660;23.262;2023-03-03T09:05:30;93924.84;;;8.21;95.33
9462;BME280;4769;42.660;23.262;2023-03-03T09:07:56;93927.13;;;8.29;95.63
9462;BME280;4769;42.660;23.262;2023-03-03T09:10:26;93927.34;;;8.39;94.74
9462;BME280;4769;42.660;23.262;2023-03-03T09:12:52;93925.28;;;8.41;95.64
9462;BME280;4769;42.660;23.262;2023-03-03T09:15:21;93921.97;;;8.45;95.30
9462;BME280;4769;42.660;23.262;2023-03-03T09:17:48;93910.88;;;8.55;93.43
9462;BME280;4769;42.660;23.262;2023-03-03T09:20:30;93907.84;;;8.63;93.01
9462;BME280;4769;42.660;23.262;2023-03-03T09:22:58;93913.25;;;8.56;92.15
9462;BME280;4769;42.660;23.262;2023-03-03T09:25:32;93914.63;;;8.87;91.37
9462;BME280;4769;42.660;23.262;2023-03-03T09:27:59;93917.06;;;9.05;89.91
9462;BME280;4769;42.660;23.262;2023-03-03T09:30:36;93913.56;;;8.99;89.43
9462;BME280;4769;42.660;23.262;2023-03-03T09:33:19;93918.47;;;8.96;89.99
9462;BME280;4769;42.660;23.262;2023-03-03T09:35:49;93921.63;;;8.81;90.18
9462;BME280;4769;42.660;23.262;2023-03-03T09:38:27;93918.72;;;8.66;90.70
9462;BME280;4769;42.660;23.262;2023-03-03T09:41:09;93922.09;;;8.78;90.51
9462;BME280;4769;42.660;23.262;2023-03-03T09:43:47;93923.59;;;8.74;91.60
9462;BME280;4769;42.660;23.262;2023-03-03T09:46:21;93930.56;;;8.80;91.56
9462;BME280;4769;42.660;23.262;2023-03-03T09:49:01;93918.66;;;8.50;93.24
9462;BME280;4769;42.660;23.262;2023-03-03T09:51:41;93920.06;;;8.29;94.31
9462;BME280;4769;42.660;23.262;2023-03-03T09:54:18;93915.25;;;8.38;94.40
9462;BME280;4769;42.660;23.262;2023-03-03T09:56:54;93918.78;;;8.32;94.95
9462;BME280;4769;42.660;23.262;2023-03-03T09:59:35;93916.28;;;8.25;94.42
9462;BME280;4769;42.660;23.262;2023-03-03T10:02:23;93922.41;;;8.19;94.33
9462;BME280;4769;42.660;23.262;2023-03-03T10:05:03;93909.88;;;7.98;95.06
9462;BME280;4769;42.660;23.262;2023-03-03T10:07:39;93910.69;;;7.99;95.66
9462;BME280;4769;42.660;23.262;2023-03-03T10:10:19;93902.34;;;8.02;95.33
9462;BME280;4769;42.660;23.262;2023-03-03T10:13:02;93908.50;;;8.19;94.86
9462;BME280;4769;42.660;23.262;2023-03-03T10:15:39;93906.66;;;8.31;95.13
9462;BME280;4769;42.660;23.262;2023-03-03T10:18:14;93907.91;;;8.40;95.73
9462;BME280;4769;42.660;23.262;2023-03-03T10:20:51;93910.09;;;8.20;94.94
9462;BME280;4769;42.660;23.262;2023-03-03T10:23:28;93908.72;;;8.17;95.61
9462;BME280;4769;42.660;23.262;2023-03-03T10:26:06;93895.81;;;8.16;95.05
9462;BME280;4769;42.660;23.262;2023-03-03T10:29:04;93896.53;;;8.23;93.67
9462;BME280;4769;42.660;23.262;2023-03-03T10:31:42;93903.59;;;8.34;93.99
9462;BME280;4769;42.660;23.262;2023-03-03T10:34:28;93899.81;;;8.07;96.21
9462;BME280;4769;42.660;23.262;2023-03-03T10:37:03;93884.66;;;8.09;96.61
9462;BME280;4769;42.660;23.262;2023-03-03T10:39:51;93892.75;;;8.19;96.77
9462;BME280;4769;42.660;23.262;2023-03-03T10:45:34;93900.63;;;8.19;96.22
9462;BME280;4769;42.660;23.262;2023-03-03T10:48:22;93896.03;;;8.14;95.83
9462;BME280;4769;42.660;23.262;2023-03-03T10:50:57;93893.09;;;8.11;95.90
9462;BME280;4769;42.660;23.262;2023-03-03T10:53:30;93888.75;;;8.05;96.39
9462;BME280;4769;42.660;23.262;2023-03-03T10:56:20;93888.44;;;8.01;97.48
9462;BME280;4769;42.660;23.262;2023-03-03T10:59:06;93887.16;;;8.04;98.10
9462;BME280;4769;42.660;23.262;2023-03-03T11:01:46;93882.16;;;8.02;98.21
9462;BME280;4769;42.660;23.262;2023-03-03T11:04:40;93874.81;;;8.04;97.58
9462;BME280;4769;42.660;23.262;2023-03-03T11:07:11;93868.78;;;8.04;97.03
9462;BME280;4769;42.660;23.262;2023-03-03T11:09:52;93875.28;;;8.13;98.07
9462;BME280;4769;42.660;23.262;2023-03-03T11:12:38;93871.41;;;8.27;98.29
9462;BME280;4769;42.660;23.262;2023-03-03T11:15:18;93871.75;;;8.30;98.42
9462;BME280;4769;42.660;23.262;2023-03-03T11:18:02;93865.69;;;8.30;98.15
9462;BME280;4769;42.660;23.262;2023-03-03T11:20:37;93848.78;;;8.26;97.93
9462;BME280;4769;42.660;23.262;2023-03-03T11:23:23;93851.19;;;8.27;98.23
9462;BME280;4769;42.660;23.262;2023-03-03T11:26:02;93857.66;;;8.36;98.80
9462;BME280;4769;42.660;23.262;2023-03-03T11:28:46;93844.44;;;8.31;99.10
9462;BME280;4769;42.660;23.262;2023-03-03T11:31:20;93847.28;;;8.30;99.47
9462;BME280;4769;42.660;23.262;2023-03-03T11:34:00;93860.56;;;8.23;99.86
9462;BME280;4769;42.660;23.262;2023-03-03T11:36:31;93860.31;;;8.13;99.87
9462;BME280;4769;42.660;23.262;2023-03-03T11:39:01;93851.91;;;8.00;100.00
9462;BME280;4769;42.660;23.262;2023-03-03T11:41:31;93851.78;;;7.95;100.00
9462;BME280;4769;42.660;23.262;2023-03-03T11:44:08;93849.75;;;7.74;100.00
9462;BME280;4769;42.660;23.262;2023-03-03T11:46:40;93847.81;;;7.81;100.00
9462;BME280;4769;42.660;23.262;2023-03-03T11:49:15;93839.69;;;7.94;100.00
9462;BME280;4769;42.660;23.262;2023-03-03T11:51:49;93854.88;;;7.92;100.00
9462;BME280;4769;42.660;23.262;2023-03-03T11:54:20;93853.50;;;8.01;100.00
9462;BME280;4769;42.660;23.262;2023-03-03T11:56:47;93847.91;;;8.09;100.00
9462;BME280;4769;42.660;23.262;2023-03-03T11:59:34;93842.56;;;7.92;100.00
9462;BME280;4769;42.660;23.262;2023-03-03T12:02:13;93826.31;;;7.95;100.00
9462;BME280;4769;42.660;23.262;2023-03-03T12:04:49;93841.03;;;8.08;100.00
9462;BME280;4769;42.660;23.262;2023-03-03T12:07:25;93846.50;;;8.18;100.00
9462;BME280;4769;42.660;23.262;2023-03-03T12:10:00;93843.00;;;7.89;100.00
9462;BME280;4769;42.660;23.262;2023-03-03T12:12:33;93840.72;;;7.70;100.00
9462;BME280;4769;42.660;23.262;2023-03-03T12:15:11;93840.81;;;7.98;100.00
9462;BME280;4769;42.660;23.262;2023-03-03T12:20:59;93847.81;;;7.92;100.00
9462;BME280;4769;42.660;23.262;2023-03-03T12:23:51;93842.44;;;7.99;100.00
9462;BME280;4769;42.660;23.262;2023-03-03T12:26:26;93837.94;;;8.22;100.00
9462;BME280;4769;42.660;23.262;2023-03-03T12:28:58;93833.84;;;8.03;100.00
9462;BME280;4769;42.660;23.262;2023-03-03T12:31:35;93838.28;;;8.14;100.00
9462;BME280;4769;42.660;23.262;2023-03-03T12:34:11;93842.28;;;8.05;100.00
9462;BME280;4769;42.660;23.262;2023-03-03T12:36:53;93839.00;;;7.87;100.00
9462;BME280;4769;42.660;23.262;2023-03-03T12:39:34;93844.97;;;7.82;100.00
9462;BME280;4769;42.660;23.262;2023-03-03T12:42:05;93831.84;;;7.71;100.00
9462;BME280;4769;42.660;23.262;2023-03-03T12:44:39;93839.38;;;7.67;100.00
9462;BME280;4769;42.660;23.262;2023-03-03T12:47:13;93853.84;;;7.70;100.00
9462;BME280;4769;42.660;23.262;2023-03-03T12:49:47;93845.75;;;7.71;100.00
9462;BME280;4769;42.660;23.262;2023-03-03T12:52:26;93845.63;;;7.78;100.00
9462;BME280;4769;42.660;23.262;2023-03-03T12:55:03;93838.22;;;7.86;100.00
9462;BME280;4769;42.660;23.262;2023-03-03T12:57:38;93840.81;;;7.98;100.00
9462;BME280;4769;42.660;23.262;2023-03-03T13:00:23;93841.97;;;8.02;100.00
9462;BME280;4769;42.660;23.262;2023-03-03T13:02:58;93841.19;;;8.01;100.00
9462;BME280;4769;42.660;23.262;2023-03-03T13:05:29;93841.28;;;8.06;100.00
9462;BME280;4769;42.660;23.262;2023-03-03T13:08:18;93831.13;;;8.21;100.00
9462;BME280;4769;42.660;23.262;2023-03-03T13:10:51;93834.38;;;8.17;100.00
9462;BME280;4769;42.660;23.262;2023-03-03T13:13:24;93826.19;;;8.25;100.00
9462;BME280;4769;42.660;23.262;2023-03-03T13:15:59;93826.38;;;8.35;100.00
9462;BME280;4769;42.660;23.262;2023-03-03T13:18:36;93827.63;;;8.32;100.00
9462;BME280;4769;42.660;23.262;2023-03-03T13:21:12;93819.78;;;8.09;100.00
9462;BME280;4769;42.660;23.262;2023-03-03T13:23:49;93825.41;;;8.13;100.00
9462;BME280;4769;42.660;23.262;2023-03-03T13:26:20;93828.56;;;8.15;100.00
9462;BME280;4769;42.660;23.262;2023-03-03T13:28:57;93830.41;;;8.14;100.00
9462;BME280;4769;42.660;23.262;2023-03-03T13:31:28;93829.25;;;8.22;100.00
9462;BME280;4769;42.660;23.262;2023-03-03T13:33:57;93831.44;;;8.25;100.00
9462;BME280;4769;42.660;23.262;2023-03-03T13:36:25;93820.16;;;8.13;100.00
9462;BME280;4769;42.660;23.262;2023-03-03T13:38:59;93834.16;;;8.18;100.00
9462;BME280;4769;42.660;23.262;2023-03-03T13:41:44;93818.66;;;8.05;100.00
9462;BME280;4769;42.660;23.262;2023-03-03T13:44:15;93827.56;;;8.04;100.00